Time;durP1;ratioP1;P1;durP2;ratioP2;P2;SDS_P1;SDS_P2;PMS_P1;PMS_P2;Temp;Humidity;BMP_temperature;BMP_pressure;BME280_temperature;BME280_humidity;BME280_pressure;Samples;Min_cycle;Max_cycle;Signal;HPM_P1;HPM_P2
2023/09/05 00:01:56;;;;;;;2.10;2.00;;;;;;;-142.91;100.00;56616.03;5068046;28;20645;-66
2023/09/05 00:04:23;;;;;;;2.17;2.08;;;;;;;-142.91;100.00;56616.03;5067685;28;20226;-65
2023/09/05 00:06:50;;;;;;;3.05;2.85;;;;;;;-142.91;100.00;56616.03;5067952;28;20203;-64
2023/09/05 00:09:19;;;;;;;3.05;2.85;;;;;;;17.18;nan;95177.22;5066486;28;20207;-65
2023/09/05 00:11:46;;;;;;;3.25;3.05;;;;;;;17.31;nan;95161.03;5067863;28;20202;-66
2023/09/05 00:14:12;;;;;;;3.30;3.10;;;;;;;17.19;nan;95176.28;5066928;28;20206;-65
2023/09/05 00:16:40;;;;;;;2.58;2.20;;;;;;;17.47;nan;95167.81;5068412;28;20230;-66
2023/09/05 00:19:07;;;;;;;2.30;2.20;;;;;;;17.49;nan;95156.53;5065879;28;20671;-66
2023/09/05 00:21:34;;;;;;;2.35;2.25;;;;;;;17.52;nan;95166.63;5067416;28;20701;-65
2023/09/05 00:24:31;;;;;;;2.40;2.30;;;;;;;17.54;nan;95163.97;5066894;28;20198;-66
2023/09/05 00:26:58;;;;;;;2.15;1.90;;;;;;;17.28;nan;95158.63;5067208;28;20256;-65
2023/09/05 00:29:26;;;;;;;5.28;2.25;;;;;;;17.12;nan;95146.75;5066372;28;20267;-65
2023/09/05 00:31:58;;;;;;;1.70;1.60;;;;;;;17.44;nan;95147.44;5067624;28;20199;-65
2023/09/05 00:34:26;;;;;;;2.15;2.05;;;;;;;17.59;nan;95156.78;5066125;28;20289;-65
2023/09/05 00:36:53;;;;;;;2.10;2.00;;;;;;;17.49;nan;95148.81;5066539;28;20723;-65
2023/09/05 00:39:19;;;;;;;2.08;1.98;;;;;;;17.46;nan;95151.56;5066340;28;20297;-65
2023/09/05 00:41:46;;;;;;;2.17;2.08;;;;;;;17.45;nan;95138.81;5066586;28;20322;-65
2023/09/05 00:44:14;;;;;;;1.77;1.67;;;;;;;17.53;nan;95145.16;5064972;28;20616;-64
2023/09/05 00:46:42;;;;;;;2.10;2.00;;;;;;;17.45;nan;95139.63;5066287;28;20241;-65
2023/09/05 00:49:12;;;;;;;1.92;1.83;;;;;;;17.46;nan;95137.91;5066031;28;20210;-66
2023/09/05 00:51:42;;;;;;;2.17;2.08;;;;;;;17.35;nan;95143.66;5067222;28;20232;-64
2023/09/05 00:54:10;;;;;;;5.82;2.17;;;;;;;17.36;nan;95137.59;5066018;28;20218;-65
2023/09/05 00:56:37;;;;;;;2.20;2.08;;;;;;;17.42;nan;95136.44;5065463;28;20263;-66
2023/09/05 00:59:05;;;;;;;2.35;2.25;;;;;;;17.45;nan;95139.63;5065224;28;20209;-65
2023/09/05 01:01:32;;;;;;;3.72;2.03;;;;;;;17.38;nan;95140.09;5066050;28;20257;-66
2023/09/05 01:03:59;;;;;;;2.28;2.17;;;;;;;17.30;nan;95135.41;5063435;28;20256;-66
2023/09/05 01:06:37;;;;;;;2.80;2.70;;;;;;;17.30;nan;95133.69;5065779;28;20737;-66
2023/09/05 01:09:26;;;;;;;2.72;2.53;;;;;;;17.38;nan;95143.47;5065532;28;20211;-65
2023/09/05 01:11:53;;;;;;;2.63;2.42;;;;;;;17.34;nan;95137.69;5065386;28;20241;-66
2023/09/05 01:14:20;;;;;;;2.28;1.90;;;;;;;17.47;nan;95145.53;5066433;28;20237;-66
2023/09/05 01:16:47;;;;;;;2.10;2.00;;;;;;;17.61;nan;95140.38;5066069;28;20287;-66
2023/09/05 01:19:16;;;;;;;2.50;2.40;;;;;;;17.55;nan;95139.94;5065363;28;20271;-67
2023/09/05 01:21:56;;;;;;;1.90;1.80;;;;;;;17.64;nan;95154.78;5062453;28;20663;-67
2023/09/05 01:24:25;;;;;;;2.08;1.98;;;;;;;17.72;nan;95156.94;5066010;28;20206;-66
2023/09/05 01:26:53;;;;;;;2.35;2.22;;;;;;;17.54;nan;95166.56;5065847;28;20229;-66
2023/09/05 01:29:29;;;;;;;1.80;1.70;;;;;;;17.43;nan;95156.88;5064514;28;20210;-66
2023/09/05 01:31:57;;;;;;;1.80;1.70;;;;;;;17.48;nan;95160.03;5064493;28;20229;-66
2023/09/05 01:34:24;;;;;;;2.13;2.03;;;;;;;17.79;nan;95165.94;5064516;28;20738;-66
2023/09/05 01:36:50;;;;;;;2.83;2.17;;;;;;;17.68;nan;95151.16;5065072;28;20287;-67
2023/09/05 01:39:17;;;;;;;2.03;1.92;;;;;;;17.85;nan;95150.13;5065183;28;20202;-67
2023/09/05 01:41:45;;;;;;;1.60;1.50;;;;;;;17.83;nan;95139.94;5065333;28;20230;-66
2023/09/05 01:44:12;;;;;;;2.05;1.95;;;;;;;17.84;nan;95138.19;5065126;28;20206;-67
2023/09/05 01:46:39;;;;;;;1.60;1.50;;;;;;;17.78;nan;95131.69;5064413;28;20230;-67
2023/09/05 01:49:05;;;;;;;2.00;1.90;;;;;;;17.64;nan;95142.78;5065460;28;20283;-67
2023/09/05 01:51:32;;;;;;;2.08;1.98;;;;;;;17.68;nan;95139.13;5065846;28;20472;-67
2023/09/05 01:53:59;;;;;;;2.05;1.95;;;;;;;17.57;nan;95131.19;5063819;28;20253;-67
2023/09/05 01:56:26;;;;;;;3.00;1.90;;;;;;;17.62;nan;95136.88;5065033;28;20233;-67
2023/09/05 01:58:54;;;;;;;2.20;2.10;;;;;;;17.65;nan;95138.47;5065590;28;20226;-67
2023/09/05 02:01:20;;;;;;;3.30;2.25;;;;;;;17.60;nan;95133.56;5065546;28;20210;-67
2023/09/05 02:03:47;;;;;;;2.47;2.38;;;;;;;17.72;nan;95137.19;5064444;28;20319;-67
2023/09/05 02:06:15;;;;;;;2.47;2.38;;;;;;;17.90;nan;95145.53;5066030;28;20293;-67
2023/09/05 02:08:42;;;;;;;2.25;2.15;;;;;;;17.94;nan;95154.72;5063514;28;20217;-67
2023/09/05 02:11:09;;;;;;;2.60;2.50;;;;;;;18.04;nan;95149.84;5066271;28;20202;-67
2023/09/05 02:13:36;;;;;;;2.67;2.42;;;;;;;17.96;nan;95145.16;5063649;28;20297;-66
2023/09/05 02:16:05;;;;;;;2.28;2.17;;;;;;;17.91;nan;95117.16;5063825;28;20264;-67
2023/09/05 02:18:31;;;;;;;2.00;1.90;;;;;;;17.89;nan;95155.00;5065523;28;20263;-66
2023/09/05 02:21:00;;;;;;;2.40;2.30;;;;;;;17.97;nan;95167.41;5069954;28;20764;-67
2023/09/05 02:23:27;;;;;;;2.92;2.83;;;;;;;18.17;nan;95172.13;5068522;28;20218;-68
2023/09/05 02:25:58;;;;;;;2.33;2.13;;;;;;;18.01;nan;95168.88;5069803;28;20229;-67
2023/09/05 02:28:25;;;;;;;2.38;2.28;;;;;;;17.77;nan;95160.06;5069189;28;20198;-67
2023/09/05 02:30:52;;;;;;;2.22;2.13;;;;;;;18.01;nan;95168.88;5069252;28;20614;-67
2023/09/05 02:33:21;;;;;;;2.78;2.67;;;;;;;18.01;nan;95179.16;5069935;28;20276;-66
2023/09/05 02:35:48;;;;;;;2.65;2.50;;;;;;;18.02;nan;95170.53;5066813;28;20259;-66
2023/09/05 02:38:14;;;;;;;2.25;2.15;;;;;;;17.93;nan;95160.78;5068612;28;20307;-66
2023/09/05 02:40:44;;;;;;;2.42;2.33;;;;;;;17.85;nan;95142.41;5068985;28;20687;-66
2023/09/05 02:43:11;;;;;;;6.63;2.38;;;;;;;18.12;nan;95161.31;5069321;28;20313;-66
2023/09/05 02:45:38;;;;;;;2.88;2.67;;;;;;;18.15;nan;95161.13;5065443;28;20238;-66
2023/09/05 02:48:05;;;;;;;3.33;3.13;;;;;;;18.07;nan;95154.78;5066883;28;20233;-66
2023/09/05 02:50:33;;;;;;;2.65;2.55;;;;;;;18.06;nan;95166.03;5068438;28;20202;-67
2023/09/05 02:53:00;;;;;;;3.42;3.22;;;;;;;17.96;nan;95150.31;5069171;28;20249;-67
2023/09/05 02:55:27;;;;;;;3.08;2.97;;;;;;;17.85;nan;95152.69;5069267;28;20267;-66
2023/09/05 02:57:53;;;;;;;3.53;3.22;;;;;;;17.73;nan;95156.84;5069142;28;20230;-66
2023/09/05 03:00:20;;;;;;;2.53;2.42;;;;;;;17.65;nan;95152.16;5066703;28;20804;-66
2023/09/05 03:02:49;;;;;;;3.22;3.03;;;;;;;17.57;nan;95161.22;5068874;28;20254;-66
2023/09/05 03:05:16;;;;;;;3.10;2.90;;;;;;;17.66;nan;95163.28;5069089;28;20205;-66
2023/09/05 03:07:45;;;;;;;3.30;3.00;;;;;;;17.77;nan;95166.03;5068899;28;20198;-66
2023/09/05 03:10:11;;;;;;;4.28;3.92;;;;;;;17.45;nan;95160.19;5069046;28;20290;-66
2023/09/05 03:12:38;;;;;;;3.80;3.60;;;;;;;17.37;nan;95167.50;5069772;28;20198;-66
2023/09/05 03:15:05;;;;;;;4.90;3.83;;;;;;;17.27;nan;95169.00;5068713;28;20226;-66
2023/09/05 03:17:32;;;;;;;3.88;3.67;;;;;;;17.28;nan;95173.22;5069538;28;20299;-66
2023/09/05 03:19:58;;;;;;;10.38;6.07;;;;;;;17.44;nan;95168.81;5066984;28;20275;-66
2023/09/05 03:22:25;;;;;;;6.32;5.93;;;;;;;17.38;nan;95174.31;5065970;28;20256;-65
2023/09/05 03:24:53;;;;;;;7.00;6.40;;;;;;;17.47;nan;95183.22;5068592;28;20630;-66
2023/09/05 03:27:20;;;;;;;7.05;6.55;;;;;;;17.37;nan;95180.38;5068757;28;20227;-66
2023/09/05 03:29:46;;;;;;;6.55;6.20;;;;;;;17.35;nan;95185.59;5067418;28;20234;-65
2023/09/05 03:32:13;;;;;;;8.38;7.75;;;;;;;17.33;nan;95195.13;5068715;28;20268;-66
2023/09/05 03:34:48;;;;;;;8.20;7.70;;;;;;;17.40;nan;95187.91;5067240;28;20210;-66
2023/09/05 03:37:15;;;;;;;8.38;7.80;;;;;;;17.23;nan;95198.31;5068515;28;20230;-67
2023/09/05 03:39:42;;;;;;;9.77;9.13;;;;;;;17.37;nan;95193.22;5068270;28;20656;-66
2023/09/05 03:42:10;;;;;;;9.00;8.40;;;;;;;17.38;nan;95197.44;5066444;28;20202;-65
2023/09/05 03:44:36;;;;;;;10.10;9.38;;;;;;;17.32;nan;95197.81;5068366;28;20230;-66
2023/09/05 03:47:03;;;;;;;10.70;9.27;;;;;;;17.33;nan;95202.81;5068942;28;20295;-66
2023/09/05 03:49:30;;;;;;;12.27;9.20;;;;;;;17.26;nan;95198.97;5067714;28;20203;-65
2023/09/05 03:51:57;;;;;;;10.07;9.15;;;;;;;17.31;nan;95198.72;5068145;28;20741;-67
2023/09/05 03:54:24;;;;;;;10.60;9.65;;;;;;;17.31;nan;95193.59;5068400;28;20190;-66
2023/09/05 03:56:50;;;;;;;11.00;9.88;;;;;;;17.27;nan;95197.25;5067843;28;20674;-66
2023/09/05 03:59:18;;;;;;;10.30;9.35;;;;;;;17.37;nan;95192.38;5068763;28;20241;-66
2023/09/05 04:01:45;;;;;;;11.13;10.23;;;;;;;17.48;nan;95195.16;5066949;28;20202;-67
2023/09/05 04:04:11;;;;;;;11.00;10.10;;;;;;;17.42;nan;95196.34;5067070;28;20219;-65
2023/09/05 04:06:38;;;;;;;10.52;9.70;;;;;;;17.43;nan;95192.84;5068983;28;20206;-65
2023/09/05 04:09:05;;;;;;;10.55;9.73;;;;;;;17.44;nan;95179.09;5067795;28;20287;-67
2023/09/05 04:11:31;;;;;;;10.95;10.15;;;;;;;17.29;nan;95183.41;5067891;28;20198;-65
2023/09/05 04:13:58;;;;;;;12.45;11.38;;;;;;;17.53;nan;95193.97;5067682;28;20222;-66
2023/09/05 04:16:26;;;;;;;11.93;10.68;;;;;;;17.48;nan;95196.00;5067978;28;20308;-66
2023/09/05 04:18:53;;;;;;;11.32;10.50;;;;;;;17.29;nan;95185.97;5065933;28;20246;-66
2023/09/05 04:21:19;;;;;;;11.70;10.80;;;;;;;17.52;nan;95200.03;5065989;28;20232;-66
2023/09/05 04:23:46;;;;;;;12.65;11.43;;;;;;;17.82;nan;95204.28;5067482;28;20291;-66
2023/09/05 04:26:14;;;;;;;16.15;11.35;;;;;;;17.52;nan;95192.34;5066821;28;20198;-66
2023/09/05 04:28:41;;;;;;;12.90;11.70;;;;;;;17.55;nan;95205.00;5067066;28;20357;-67
2023/09/05 04:31:08;;;;;;;17.75;11.50;;;;;;;17.59;nan;95203.88;5067247;28;20210;-64
2023/09/05 04:33:38;;;;;;;11.15;10.35;;;;;;;17.59;nan;95201.31;5065946;28;20190;-67
2023/09/05 04:36:08;;;;;;;11.15;10.27;;;;;;;17.82;nan;95219.72;5065631;28;20226;-67
2023/09/05 04:38:35;;;;;;;13.02;11.70;;;;;;;17.79;nan;95205.31;5066936;28;20224;-64
2023/09/05 04:41:02;;;;;;;11.18;10.38;;;;;;;17.85;nan;95201.53;5065878;28;20293;-65
2023/09/05 04:43:30;;;;;;;13.45;12.15;;;;;;;17.97;nan;95208.53;5066689;28;20222;-67
2023/09/05 04:45:58;;;;;;;11.27;10.40;;;;;;;17.94;nan;95198.44;5067263;28;20202;-66
2023/09/05 04:48:24;;;;;;;11.30;10.40;;;;;;;18.05;nan;95206.34;5066190;28;20209;-65
2023/09/05 04:50:52;;;;;;;11.07;10.07;;;;;;;17.86;nan;95205.78;5066524;28;20263;-65
2023/09/05 04:53:19;;;;;;;10.82;9.93;;;;;;;17.81;nan;95202.66;5066794;28;20234;-65
2023/09/05 04:55:47;;;;;;;11.57;10.68;;;;;;;17.78;nan;95198.53;5066701;28;20752;-65
2023/09/05 04:58:14;;;;;;;11.55;10.70;;;;;;;17.76;nan;95194.41;5067102;28;20194;-66
2023/09/05 05:00:41;;;;;;;10.90;10.10;;;;;;;17.92;nan;95205.41;5066996;28;20202;-66
2023/09/05 05:03:08;;;;;;;10.90;10.07;;;;;;;17.91;nan;95199.44;5065585;28;20231;-66
2023/09/05 05:05:34;;;;;;;12.25;11.15;;;;;;;17.96;nan;95202.56;5066749;28;20195;-66
2023/09/05 05:08:03;;;;;;;11.15;10.23;;;;;;;18.05;nan;95211.47;5067352;28;20230;-66
2023/09/05 05:10:30;;;;;;;11.52;10.52;;;;;;;18.03;nan;95210.75;5064880;28;20256;-67
2023/09/05 05:12:56;;;;;;;11.65;9.98;;;;;;;17.84;nan;95207.59;5065861;28;20801;-66
2023/09/05 05:15:23;;;;;;;12.20;11.30;;;;;;;17.83;nan;95216.22;5066204;28;20226;-65
2023/09/05 05:17:50;;;;;;;12.00;10.95;;;;;;;17.86;nan;95227.16;5064163;28;20226;-66
2023/09/05 05:20:18;;;;;;;11.70;10.63;;;;;;;17.84;nan;95233.31;5066368;28;20320;-66
2023/09/05 05:22:44;;;;;;;12.70;11.60;;;;;;;17.96;nan;95223.13;5065711;28;20627;-66
2023/09/05 05:25:12;;;;;;;12.55;11.05;;;;;;;17.89;nan;95234.69;5063651;28;20262;-66
2023/09/05 05:27:39;;;;;;;10.82;9.93;;;;;;;17.96;nan;95227.47;5065907;28;20299;-65
2023/09/05 05:30:07;;;;;;;11.77;10.77;;;;;;;18.14;nan;95231.47;5066404;28;20202;-66
2023/09/05 05:32:33;;;;;;;11.63;10.57;;;;;;;18.27;nan;95232.41;5066271;28;20653;-67
2023/09/05 05:35:00;;;;;;;11.35;10.45;;;;;;;18.25;nan;95223.13;5065938;28;20207;-67
2023/09/05 05:37:27;;;;;;;13.65;12.52;;;;;;;18.45;nan;95224.47;5065635;28;20279;-66
2023/09/05 05:39:54;;;;;;;12.48;11.45;;;;;;;18.54;nan;95221.34;5065718;28;20198;-64
2023/09/05 05:42:22;;;;;;;14.10;12.68;;;;;;;18.65;nan;95218.94;5066631;28;20229;-66
2023/09/05 05:44:49;;;;;;;14.07;11.60;;;;;;;18.61;nan;95235.50;5065891;28;20344;-66
2023/09/05 05:47:15;;;;;;;12.65;11.45;;;;;;;18.58;nan;95226.19;5066120;28;20260;-65
2023/09/05 05:49:42;;;;;;;13.65;12.45;;;;;;;18.62;nan;95232.00;5066021;28;20214;-66
2023/09/05 05:52:10;;;;;;;13.43;12.40;;;;;;;18.66;nan;95228.31;5064187;28;20202;-65
2023/09/05 05:54:37;;;;;;;16.15;12.15;;;;;;;18.17;nan;95231.31;5063647;28;20289;-64
2023/09/05 05:57:04;;;;;;;14.18;12.95;;;;;;;18.12;nan;95233.31;5065827;28;20225;-65
2023/09/05 05:59:32;;;;;;;14.20;12.75;;;;;;;18.33;nan;95231.19;5066570;28;20202;-65
2023/09/05 06:01:59;;;;;;;15.05;13.63;;;;;;;18.73;nan;95232.16;5063248;28;20688;-66
2023/09/05 06:04:25;;;;;;;14.93;13.48;;;;;;;19.23;nan;95238.41;5063518;28;20761;-67
2023/09/05 06:06:53;;;;;;;14.75;13.23;;;;;;;19.66;nan;95229.53;5065897;28;20248;-65
2023/09/05 06:09:19;;;;;;;13.82;12.48;;;;;;;19.52;nan;95229.66;5066906;28;20280;-65
2023/09/05 06:11:47;;;;;;;13.02;11.82;;;;;;;19.31;nan;95231.00;5064767;28;20622;-64
2023/09/05 06:14:14;;;;;;;14.45;11.70;;;;;;;19.19;nan;95231.81;5064652;28;20574;-65
2023/09/05 06:16:42;;;;;;;13.20;11.90;;;;;;;19.14;nan;95228.69;5065080;28;20212;-65
2023/09/05 06:19:09;;;;;;;18.40;11.93;;;;;;;19.13;nan;95225.28;5065817;28;20198;-65
2023/09/05 06:21:36;;;;;;;13.13;11.65;;;;;;;19.17;nan;95218.19;5065812;28;20194;-65
2023/09/05 06:24:02;;;;;;;12.50;10.80;;;;;;;19.02;nan;95223.41;5066023;28;20246;-65
2023/09/05 06:26:29;;;;;;;15.05;12.57;;;;;;;19.02;nan;95231.16;5064072;28;20207;-65
2023/09/05 06:28:55;;;;;;;14.07;12.77;;;;;;;18.96;nan;95221.22;5065993;28;20198;-66
2023/09/05 06:31:22;;;;;;;12.10;10.95;;;;;;;18.93;nan;95234.31;5065465;28;20229;-66
2023/09/05 06:33:50;;;;;;;12.88;11.77;;;;;;;19.08;nan;95234.22;5065923;28;20230;-66
2023/09/05 06:36:17;;;;;;;14.00;12.70;;;;;;;18.95;nan;95223.91;5063924;28;20295;-66
2023/09/05 06:38:43;;;;;;;14.32;12.25;;;;;;;18.90;nan;95231.91;5064840;28;20316;-67
2023/09/05 06:41:11;;;;;;;12.88;11.57;;;;;;;18.75;nan;95232.91;5063927;28;20252;-66
2023/09/05 06:43:38;;;;;;;13.93;12.70;;;;;;;18.97;nan;95237.50;5065637;28;20225;-66
2023/09/05 06:46:06;;;;;;;13.05;12.02;;;;;;;18.98;nan;95234.84;5065585;28;20705;-67
2023/09/05 06:48:32;;;;;;;13.07;11.75;;;;;;;18.83;nan;95243.53;5065738;28;20230;-66
2023/09/05 06:51:00;;;;;;;17.30;10.73;;;;;;;18.76;nan;95229.41;5065086;28;20206;-65
2023/09/05 06:53:28;;;;;;;12.13;10.88;;;;;;;18.72;nan;95243.38;5063607;28;20226;-67
2023/09/05 06:55:54;;;;;;;11.05;10.05;;;;;;;18.56;nan;95235.75;5065742;28;20202;-66
2023/09/05 06:58:24;;;;;;;11.93;10.82;;;;;;;18.74;nan;95235.56;5065741;28;20222;-66
2023/09/05 07:00:54;;;;;;;11.90;10.93;;;;;;;18.74;nan;95231.25;5065148;28;20293;-65
2023/09/05 07:03:21;;;;;;;11.88;10.88;;;;;;;18.93;nan;95244.59;5064761;28;20206;-65
2023/09/05 07:05:47;;;;;;;11.30;10.18;;;;;;;19.07;nan;95237.72;5066890;28;20729;-66
2023/09/05 07:08:15;;;;;;;10.43;9.52;;;;;;;19.33;nan;95247.19;5068568;28;20284;-67
2023/09/05 07:10:42;;;;;;;10.65;8.88;;;;;;;19.36;nan;95250.41;5068114;28;20707;-67
2023/09/05 07:13:09;;;;;;;10.57;9.68;;;;;;;19.37;nan;95264.09;5067032;28;20644;-67
2023/09/05 07:15:36;;;;;;;14.50;9.13;;;;;;;19.30;nan;95265.44;5068310;28;20699;-65
2023/09/05 07:18:02;;;;;;;12.18;10.45;;;;;;;19.18;nan;95271.38;5068887;28;20230;-66
2023/09/05 07:20:30;;;;;;;19.50;10.52;;;;;;;19.21;nan;95273.75;5067365;28;20293;-66
2023/09/05 07:22:56;;;;;;;16.25;11.85;;;;;;;19.25;nan;95275.22;5068261;28;20198;-66
2023/09/05 07:25:24;;;;;;;12.25;11.05;;;;;;;19.44;nan;95269.69;5068694;28;20311;-65
2023/09/05 07:27:51;;;;;;;13.40;11.25;;;;;;;19.33;nan;95280.69;5068117;28;20292;-66
2023/09/05 07:30:18;;;;;;;11.90;10.90;;;;;;;19.28;nan;95275.84;5068506;28;20202;-66
2023/09/05 07:32:45;;;;;;;11.23;10.00;;;;;;;19.39;nan;95280.28;5067058;28;20680;-67
2023/09/05 07:35:12;;;;;;;11.18;9.95;;;;;;;19.62;nan;95289.16;5068009;28;20284;-67
2023/09/05 07:37:38;;;;;;;9.93;8.93;;;;;;;19.48;nan;95290.03;5066117;28;20253;-67
2023/09/05 07:40:06;;;;;;;11.60;10.32;;;;;;;19.17;nan;95290.34;5066852;28;20286;-66
2023/09/05 07:42:35;;;;;;;9.73;8.85;;;;;;;18.92;nan;95307.34;5067668;28;20206;-68
2023/09/05 07:45:02;;;;;;;10.27;9.48;;;;;;;18.56;nan;95309.59;5067738;28;20230;-67
2023/09/05 07:47:29;;;;;;;11.77;10.65;;;;;;;18.52;nan;95313.25;5067345;28;20209;-66
2023/09/05 07:49:56;;;;;;;10.65;9.80;;;;;;;18.49;nan;95303.16;5067745;28;20722;-65
2023/09/05 07:52:23;;;;;;;9.43;8.77;;;;;;;18.54;nan;95301.13;5067932;28;20272;-65
2023/09/05 07:54:49;;;;;;;13.10;10.52;;;;;;;18.42;nan;95305.25;5068015;28;20222;-64
2023/09/05 07:57:17;;;;;;;13.05;10.40;;;;;;;18.57;nan;95306.06;5067652;28;20207;-64
2023/09/05 07:59:45;;;;;;;10.38;9.55;;;;;;;18.44;nan;95300.84;5067741;28;20198;-64
2023/09/05 08:02:12;;;;;;;11.35;9.90;;;;;;;18.42;nan;95297.53;5068094;28;20199;-65
2023/09/05 08:04:39;;;;;;;11.80;10.63;;;;;;;18.56;nan;95304.44;5068249;28;20674;-67
2023/09/05 08:07:07;;;;;;;11.68;10.20;;;;;;;18.80;nan;95296.97;5067122;28;20198;-67
2023/09/05 08:09:34;;;;;;;10.65;9.60;;;;;;;18.88;nan;95295.56;5068016;28;20219;-66
2023/09/05 08:12:02;;;;;;;12.07;11.00;;;;;;;19.10;nan;95289.06;5064030;28;20267;-67
2023/09/05 08:14:29;;;;;;;10.82;10.07;;;;;;;19.80;nan;95289.69;5067919;28;20206;-67
2023/09/05 08:16:57;;;;;;;9.70;8.80;;;;;;;20.94;nan;95293.03;5066163;28;20292;-64
2023/09/05 08:19:24;;;;;;;10.48;9.13;;;;;;;21.26;nan;95284.78;5067601;28;20230;-65
2023/09/05 08:21:51;;;;;;;10.02;9.18;;;;;;;21.37;nan;95293.38;5066337;28;20202;-65
2023/09/05 08:24:17;;;;;;;10.40;9.38;;;;;;;21.25;nan;95294.28;5067628;28;20299;-66
2023/09/05 08:26:44;;;;;;;9.68;8.88;;;;;;;21.18;nan;95294.78;5063701;28;20229;-66
2023/09/05 08:29:13;;;;;;;9.43;8.80;;;;;;;21.57;nan;95306.63;5065984;28;20240;-65
2023/09/05 08:31:40;;;;;;;10.85;8.15;;;;;;;21.78;nan;95304.25;5067344;28;20203;-65
2023/09/05 08:34:08;;;;;;;8.07;7.38;;;;;;;22.71;nan;95305.78;5066723;28;20203;-64
2023/09/05 08:36:35;;;;;;;6.90;6.20;;;;;;;;;;5067234;28;20715;-65
2023/09/05 08:39:01;;;;;;;6.15;5.60;;;;;;;;;;5066116;28;21081;-65
2023/09/05 08:41:28;;;;;;;7.97;7.18;;;;;;;23.25;100.00;56616.03;5067210;28;20283;-66
2023/09/05 08:43:56;;;;;;;7.25;6.65;;;;;;;;;;5063144;28;20206;-66
2023/09/05 08:46:23;;;;;;;7.68;7.07;;;;;;;23.25;100.00;56616.03;5066812;28;20277;-66
2023/09/05 08:48:51;;;;;;;8.45;7.80;;;;;;;23.25;100.00;56616.03;5066352;28;20238;-67
2023/09/05 08:51:20;;;;;;;7.88;7.32;;;;;;;23.25;100.00;56616.03;5064412;28;20206;-64
2023/09/05 08:53:55;;;;;;;8.25;7.65;;;;;;;23.25;100.00;56616.03;5063892;28;20299;-66
2023/09/05 08:56:22;;;;;;;7.25;6.65;;;;;;;23.25;100.00;56616.03;5064471;28;20229;-67
2023/09/05 08:58:52;;;;;;;7.90;6.20;;;;;;;23.25;100.00;56616.03;5062985;28;20210;-67
2023/09/05 09:01:19;;;;;;;6.60;6.05;;;;;;;23.25;100.00;56616.03;5065852;28;20236;-67
2023/09/05 09:03:46;;;;;;;6.15;5.70;;;;;;;23.25;100.00;56616.03;5063541;28;20249;-65
2023/09/05 09:06:12;;;;;;;5.75;5.32;;;;;;;;;;5065298;28;20291;-65
2023/09/05 09:08:42;;;;;;;6.38;5.88;;;;;;;23.25;100.00;56616.03;5065371;28;20198;-66
2023/09/05 09:11:09;;;;;;;7.05;6.40;;;;;;;;;;5066644;28;20275;-66
2023/09/05 09:13:36;;;;;;;9.88;5.97;;;;;;;23.25;100.00;56616.03;5063233;28;20707;-65
2023/09/05 09:16:03;;;;;;;5.88;5.32;;;;;;;23.25;100.00;56616.03;5064013;28;20707;-65
2023/09/05 09:18:31;;;;;;;5.65;5.25;;;;;;;23.25;100.00;56616.03;5062831;28;20654;-66
2023/09/05 09:20:59;;;;;;;5.38;4.97;;;;;;;;;;5065428;28;20634;-69
2023/09/05 09:23:27;;;;;;;5.30;4.90;;;;;;;23.25;100.00;56616.03;5063576;28;20283;-66
2023/09/05 09:25:55;;;;;;;6.72;5.30;;;;;;;;;;5064132;28;20229;-67
2023/09/05 09:28:23;;;;;;;7.35;4.97;;;;;;;;;;5062818;28;20233;-65
2023/09/05 09:30:56;;;;;;;5.75;4.95;;;;;;;;;;5064428;28;20293;-66
2023/09/05 09:33:22;;;;;;;5.22;4.82;;;;;;;;;;5063886;28;20225;-66
2023/09/05 09:36:03;;;;;;;5.72;5.30;;;;;;;23.25;100.00;56616.03;5063246;28;20202;-66
2023/09/05 09:38:29;;;;;;;5.40;4.97;;;;;;;;;;5063836;28;20704;-66
2023/09/05 09:41:00;;;;;;;5.25;4.82;;;;;;;;;;5064118;28;20220;-67
2023/09/05 09:43:27;;;;;;;4.82;4.53;;;;;;;;;;5066063;28;20563;-67
2023/09/05 09:45:54;;;;;;;7.07;5.03;;;;;;;23.25;100.00;56616.03;5065448;28;20311;-68
2023/09/05 09:48:22;;;;;;;7.22;4.45;;;;;;;23.25;100.00;56616.03;5065353;28;20206;-68
2023/09/05 09:50:50;;;;;;;5.65;4.75;;;;;;;23.25;100.00;56616.03;5065611;28;20206;-68
2023/09/05 09:53:22;;;;;;;5.18;4.78;;;;;;;23.25;100.00;56616.03;5064702;28;20315;-66
2023/09/05 09:55:52;;;;;;;5.75;4.32;;;;;;;23.25;100.00;56616.03;5065462;28;20201;-66
2023/09/05 09:58:25;;;;;;;5.82;5.28;;;;;;;23.25;100.00;56616.03;5064518;28;20458;-65
2023/09/05 10:00:55;;;;;;;6.18;5.10;;;;;;;23.25;100.00;56616.03;5065547;28;20202;-66
2023/09/05 10:03:24;;;;;;;5.63;5.15;;;;;;;23.25;100.00;56616.03;5065233;28;20198;-65
2023/09/05 10:05:51;;;;;;;4.63;4.22;;;;;;;23.25;100.00;56616.03;5065261;28;20617;-66
2023/09/05 10:08:20;;;;;;;4.13;3.88;;;;;;;23.25;100.00;56616.03;5064855;28;20222;-66
2023/09/05 10:10:48;;;;;;;4.88;4.50;;;;;;;23.25;100.00;56616.03;5064882;28;20202;-64
2023/09/05 10:13:16;;;;;;;8.48;4.95;;;;;;;-142.91;100.00;56616.03;5064928;28;20683;-65
2023/09/05 10:15:48;;;;;;;5.60;4.20;;;;;;;-142.91;100.00;56616.03;5065446;28;20636;-66
2023/09/05 10:18:17;;;;;;;8.23;4.20;;;;;;;-142.91;100.00;56616.03;5064248;28;20684;-67
2023/09/05 10:20:46;;;;;;;4.00;3.55;;;;;;;23.25;100.00;56616.03;5065174;28;20683;-66
2023/09/05 10:23:15;;;;;;;4.15;3.75;;;;;;;-142.91;100.00;56616.03;5065417;28;20202;-65
2023/09/05 10:25:42;;;;;;;8.70;3.90;;;;;;;-142.91;100.00;56616.03;5065885;28;20303;-65
2023/09/05 10:28:09;;;;;;;9.40;4.22;;;;;;;-142.91;100.00;56616.03;5064677;28;20259;-67
2023/09/05 10:30:40;;;;;;;8.05;5.53;;;;;;;-142.91;100.00;56616.03;5065470;28;20757;-66
2023/09/05 10:33:09;;;;;;;5.15;3.92;;;;;;;-142.91;100.00;56616.03;5064295;28;20230;-65
2023/09/05 10:35:35;;;;;;;10.88;3.70;;;;;;;-142.91;100.00;56616.03;5064351;28;20206;-67
2023/09/05 10:38:05;;;;;;;4.95;4.20;;;;;;;-142.91;100.00;56616.03;5065267;28;20198;-66
2023/09/05 10:40:36;;;;;;;5.47;4.95;;;;;;;-142.91;100.00;56616.03;5067471;28;20228;-66
2023/09/05 10:43:04;;;;;;;4.35;4.05;;;;;;;-142.91;100.00;56616.03;5068843;28;20202;-64
2023/09/05 10:45:33;;;;;;;4.53;4.07;;;;;;;-142.91;100.00;56616.03;5068722;28;20273;-66
2023/09/05 10:48:08;;;;;;;5.75;4.05;;;;;;;-142.91;100.00;56616.03;5068758;28;20708;-68
2023/09/05 10:51:07;;;;;;;3.88;3.58;;;;;;;-142.91;100.00;56616.03;5069018;28;20194;-65
2023/09/05 10:53:35;;;;;;;4.28;3.92;;;;;;;-142.91;100.00;56616.03;5067656;28;20328;-66
2023/09/05 10:56:03;;;;;;;4.07;3.50;;;;;;;-142.91;100.00;56616.03;5068725;28;20629;-65
2023/09/05 10:58:53;;;;;;;4.90;3.88;;;;;;;-142.91;100.00;56616.03;5067682;28;20671;-66
2023/09/05 11:01:48;;;;;;;5.10;3.90;;;;;;;-142.91;100.00;56616.03;5068408;28;20289;-67
2023/09/05 11:04:20;;;;;;;6.85;3.97;;;;;;;-142.91;100.00;56616.03;5068311;28;20280;-68
2023/09/05 11:07:09;;;;;;;3.42;3.13;;;;;;;-142.91;100.00;56616.03;5069091;28;20218;-67
2023/09/05 11:09:48;;;;;;;3.72;3.47;;;;;;;-142.91;100.00;56616.03;5067946;28;20665;-67
2023/09/05 11:12:15;;;;;;;3.65;3.45;;;;;;;;;;5068597;28;20212;-66
2023/09/05 11:14:42;;;;;;;4.93;3.50;;;;;;;23.25;100.00;56616.03;5068568;28;20195;-66
2023/09/05 11:17:12;;;;;;;6.07;3.90;;;;;;;;;;5068505;28;20237;-67
2023/09/05 11:19:42;;;;;;;5.97;3.90;;;;;;;23.25;100.00;56616.03;5068097;28;20206;-66
2023/09/05 11:22:14;;;;;;;4.13;3.85;;;;;;;23.25;100.00;56616.03;5067257;28;20704;-67
2023/09/05 11:24:46;;;;;;;5.88;3.70;;;;;;;23.25;100.00;56616.03;5066046;28;20249;-66
2023/09/05 11:27:13;;;;;;;4.65;4.28;;;;;;;23.25;100.00;56616.03;5066885;28;20256;-66
2023/09/05 11:29:42;;;;;;;4.38;3.85;;;;;;;23.25;100.00;56616.03;5065759;28;21216;-65
2023/09/05 11:32:12;;;;;;;5.47;3.70;;;;;;;23.25;100.00;56616.03;5066053;28;20210;-66
2023/09/05 11:34:40;;;;;;;9.68;5.85;;;;;;;23.25;100.00;56616.03;5065502;28;20214;-66
2023/09/05 11:37:07;;;;;;;4.43;3.50;;;;;;;23.25;100.00;56616.03;5066719;28;20249;-68
2023/09/05 11:39:35;;;;;;;4.32;4.00;;;;;;;-142.91;100.00;56616.03;5066560;28;20241;-67
2023/09/05 11:42:02;;;;;;;3.78;3.58;;;;;;;-142.91;100.00;56616.03;5068032;28;20230;-66
2023/09/05 11:44:38;;;;;;;4.38;3.90;;;;;;;-142.91;100.00;56616.03;5067459;28;20214;-66
2023/09/05 11:47:05;;;;;;;5.88;4.43;;;;;;;-142.91;100.00;56616.03;5068301;28;20223;-67
2023/09/05 11:49:32;;;;;;;8.77;5.32;;;;;;;;;;5067435;28;20676;-66